LEAS/OVD METAR and TAF weather

Enter ICAO airport designator
Station Type Date Time Source
LEAS METAR 2021/07/24 20:30 UTC NOAA

LEAS 242030Z 27009KT 240V300 9999 FEW026 BKN032 19/15 Q1015 NOSIG


Station Type Date Time Source
LEAS Decoded METAR 2021/07/24 20:30 UTC NOAA

Asturias / Aviles, Spain (LEAS) 43-33N 006-02W 130M
Jul 24, 2021 - 04:30 PM EDT / 2021.07.24 2030 UTC
Wind: from the W (270 degrees) at 10 MPH (9 KT) (direction variable):0
Visibility: greater than 7 mile(s):0
Sky conditions: mostly cloudy
Temperature: 66 F (19 C)
Dew Point: 59 F (15 C)
Relative Humidity: 77%
Pressure (altimeter): 29.97 in. Hg (1015 hPa)
ob: LEAS 242030Z 27009KT 240V300 9999 FEW026 BKN032 19/15 Q1015 NOSIG
cycle: 20

Station Type Date Time Source
LEAS TAF 2021/07/24 21:27 UTC NOAA

TAF TAF LEAS 242000Z 2421/2521 29009KT 9999 SCT020 BKN035 TX21/2515Z TN14/2505Z PROB30
TEMPO 2503/2505 3000 BR

Example: see airport list